Time;durP1;ratioP1;P1;durP2;ratioP2;P2;SDS_P1;SDS_P2;PMS_P1;PMS_P2;Temp;Humidity;BMP_temperature;BMP_pressure;BME280_temperature;BME280_humidity;BME280_pressure;Samples;Min_cycle;Max_cycle;Signal;HPM_P1;HPM_P2
2022/12/17 13:08:07;;;;;;;45.10;36.50;;;;;;;0.94;100.00;96054.66;5065877;28;20390;-64
2022/12/17 13:10:34;;;;;;;31.17;27.90;;;;;;;0.85;100.00;96056.78;5064080;28;20077;-63
2022/12/17 13:13:12;;;;;;;56.38;40.58;;;;;;;1.03;100.00;96062.00;5065115;28;20070;-64
2022/12/17 13:15:42;;;;;;;31.40;28.23;;;;;;;1.16;100.00;96054.47;5068270;28;20090;-64
2022/12/17 13:18:27;;;;;;;31.02;27.95;;;;;;;1.09;100.00;96061.72;5066370;28;20048;-64
2022/12/17 13:20:59;;;;;;;31.80;28.63;;;;;;;0.97;100.00;96057.09;5065876;28;20032;-55
2022/12/17 13:23:29;;;;;;;30.73;27.80;;;;;;;1.07;100.00;96054.91;5063097;28;20341;-56
2022/12/17 13:26:15;;;;;;;29.90;27.10;;;;;;;1.02;100.00;96060.34;5067636;28;20528;-56
2022/12/17 13:28:43;;;;;;;31.02;27.92;;;;;;;0.98;100.00;96063.97;5065465;28;20008;-56
2022/12/17 13:31:16;;;;;;;30.40;27.42;;;;;;;1.05;100.00;96065.38;5066964;28;20154;-56
2022/12/17 13:33:55;;;;;;;32.03;28.83;;;;;;;1.10;100.00;96067.72;5068382;28;20136;-57
2022/12/17 13:36:26;;;;;;;37.00;33.15;;;;;;;1.17;100.00;96068.25;5063341;28;20052;-56
2022/12/17 13:39:21;;;;;;;32.22;29.00;;;;;;;1.03;100.00;96069.78;5062170;28;20108;-59
2022/12/17 13:41:53;;;;;;;32.33;29.27;;;;;;;1.05;100.00;96070.56;5054476;28;20049;-59
2022/12/17 13:44:42;;;;;;;40.28;36.28;;;;;;;1.03;100.00;96081.91;5063748;28;20055;-59
2022/12/17 13:47:20;;;;;;;31.20;28.00;;;;;;;0.94;100.00;96094.41;5068157;28;20037;-60
2022/12/17 13:49:50;;;;;;;32.88;29.60;;;;;;;0.96;100.00;96104.69;5065337;28;20104;-60
2022/12/17 13:52:18;;;;;;;31.42;27.65;;;;;;;1.02;100.00;96104.41;5061593;28;20615;-59
2022/12/17 13:54:44;;;;;;;28.73;25.98;;;;;;;0.98;100.00;96106.31;5067688;28;20074;-60
2022/12/17 13:57:13;;;;;;;29.30;26.50;;;;;;;1.09;100.00;96108.38;5061938;28;20032;-70
2022/12/17 13:59:38;;;;;;;29.85;26.90;;;;;;;1.05;100.00;96111.19;5068511;28;20033;-61
2022/12/17 14:02:04;;;;;;;29.83;26.75;;;;;;;1.20;100.00;96109.63;5067280;28;20145;-55
2022/12/17 14:04:30;;;;;;;29.92;26.92;;;;;;;1.21;100.00;96112.16;5067325;28;20107;-53
2022/12/17 14:07:01;;;;;;;33.75;30.15;;;;;;;1.13;100.00;96111.69;5046371;28;20111;-56
2022/12/17 14:09:33;;;;;;;40.28;36.17;;;;;;;1.08;100.00;96119.69;5060852;28;20060;-56
2022/12/17 14:14:48;;;;;;;29.73;26.73;;;;;;;1.21;100.00;96106.97;5067128;28;20043;-54
2022/12/17 14:17:33;;;;;;;37.03;32.40;;;;;;;1.26;100.00;96114.53;5068681;28;20478;-66
2022/12/17 14:20:29;;;;;;;33.20;29.08;;;;;;;1.23;100.00;96117.28;5052985;28;20093;-61
2022/12/17 14:23:19;;;;;;;42.13;36.40;;;;;;;1.24;100.00;96124.97;5061772;28;20662;-60
2022/12/17 14:25:44;;;;;;;28.75;25.77;;;;;;;1.19;100.00;96126.94;5052192;28;20036;-60
2022/12/17 14:28:21;;;;;;;34.30;30.88;;;;;;;1.19;100.00;96131.28;5065583;28;20376;-60
2022/12/17 14:30:46;;;;;;;29.95;27.02;;;;;;;1.09;100.00;96131.72;5061386;28;20106;-60
2022/12/17 14:33:32;;;;;;;38.33;34.50;;;;;;;1.21;100.00;96126.84;5065533;28;20021;-61
2022/12/17 14:36:00;;;;;;;31.02;27.73;;;;;;;1.11;100.00;96142.03;5061077;28;20052;-60
2022/12/17 14:38:26;;;;;;;32.75;29.27;;;;;;;1.03;100.00;96137.22;5064554;28;20025;-70
2022/12/17 14:40:52;;;;;;;31.65;28.42;;;;;;;0.94;100.00;96138.47;5068333;28;20035;-60
2022/12/17 14:43:27;;;;;;;39.13;35.08;;;;;;;0.99;100.00;96148.63;5060236;28;20448;-60
2022/12/17 14:46:20;;;;;;;34.58;31.05;;;;;;;1.02;100.00;96145.91;5061589;28;20031;-60
2022/12/17 14:48:59;;;;;;;39.53;35.45;;;;;;;0.99;100.00;96146.03;5062676;28;20109;-60
2022/12/17 14:51:37;;;;;;;35.10;31.65;;;;;;;0.84;100.00;96153.63;5066107;28;20057;-60
2022/12/17 14:54:24;;;;;;;31.45;28.23;;;;;;;0.92;100.00;96155.00;5064738;28;20112;-60
2022/12/17 14:56:53;;;;;;;49.50;44.42;;;;;;;0.84;100.00;96155.38;5062765;28;20017;-59
2022/12/17 14:59:34;;;;;;;49.95;44.85;;;;;;;0.78;100.00;96163.44;5061382;28;20028;-55
2022/12/17 15:02:18;;;;;;;35.17;30.63;;;;;;;0.68;100.00;96163.00;5066805;28;20032;-56
2022/12/17 15:04:43;;;;;;;63.42;57.40;;;;;;;0.70;100.00;96168.97;5064939;28;20560;-57
2022/12/17 15:07:13;;;;;;;33.55;30.15;;;;;;;0.62;100.00;96164.13;5066600;28;20028;-56
2022/12/17 15:09:39;;;;;;;30.25;27.30;;;;;;;0.60;100.00;96168.53;5062653;28;20490;-56
2022/12/17 15:12:05;;;;;;;27.55;24.88;;;;;;;0.53;100.00;96164.53;5064443;28;20272;-55
2022/12/17 15:14:30;;;;;;;34.47;31.17;;;;;;;0.52;100.00;96171.47;5061185;28;20105;-56
2022/12/17 15:16:57;;;;;;;35.17;31.20;;;;;;;0.65;100.00;96171.75;5067015;28;20280;-60
2022/12/17 15:19:23;;;;;;;31.90;28.50;;;;;;;0.71;100.00;96171.50;5067162;28;20039;-59
2022/12/17 15:21:48;;;;;;;32.20;28.80;;;;;;;0.72;100.00;96177.50;5063877;28;20020;-60
2022/12/17 15:24:18;;;;;;;31.25;27.92;;;;;;;0.77;100.00;96167.75;5069843;28;20133;-60
2022/12/17 15:26:44;;;;;;;29.83;26.83;;;;;;;0.72;100.00;96161.94;5066302;28;20065;-59
2022/12/17 15:29:10;;;;;;;30.85;27.75;;;;;;;0.67;100.00;96167.38;5069914;28;20017;-59
2022/12/17 15:31:35;;;;;;;34.15;30.85;;;;;;;0.60;100.00;96165.94;5069823;28;20054;-60
2022/12/17 15:34:00;;;;;;;43.67;39.53;;;;;;;0.63;100.00;96170.16;5068494;28;20048;-70
2022/12/17 15:36:26;;;;;;;36.80;33.15;;;;;;;0.53;100.00;96174.91;5067196;28;20039;-59
2022/12/17 15:38:51;;;;;;;33.63;30.13;;;;;;;0.41;100.00;96169.34;5069394;28;20463;-60
2022/12/17 15:44:01;;;;;;;34.03;30.63;;;;;;;0.26;100.00;96175.22;5066971;28;20039;-59
2022/12/17 15:46:28;;;;;;;29.55;26.67;;;;;;;0.33;100.00;96175.78;5070000;28;20024;-59
2022/12/17 15:48:55;;;;;;;29.15;26.38;;;;;;;0.22;100.00;96163.28;5070455;28;20021;-60
2022/12/17 15:51:22;;;;;;;33.35;29.88;;;;;;;0.16;100.00;96173.91;5066174;28;20064;-60
2022/12/17 15:53:48;;;;;;;49.33;41.92;;;;;;;0.16;100.00;96173.91;5071074;28;20027;-71
2022/12/17 15:56:19;;;;;;;49.33;41.00;;;;;;;0.11;100.00;96174.97;5067010;28;20029;-60
2022/12/17 15:58:44;;;;;;;54.17;45.20;;;;;;;0.12;100.00;96173.22;5067379;28;20024;-64
2022/12/17 16:01:10;;;;;;;37.55;33.75;;;;;;;0.26;100.00;96178.63;5063391;28;20036;-64
2022/12/17 16:03:35;;;;;;;33.70;30.27;;;;;;;0.21;100.00;96180.59;5070099;28;20021;-64
2022/12/17 16:06:00;;;;;;;35.90;32.25;;;;;;;0.12;100.00;96184.41;5059262;28;20045;-63
2022/12/17 16:08:26;;;;;;;36.25;32.55;;;;;;;0.13;100.00;96173.16;5064572;28;20508;-64
2022/12/17 16:10:51;;;;;;;34.08;30.58;;;;;;;0.09;100.00;96175.94;5062496;28;20033;-64
2022/12/17 16:13:16;;;;;;;37.25;33.35;;;;;;;0.07;100.00;96176.00;5068133;28;20508;-62
2022/12/17 16:15:42;;;;;;;43.67;37.67;;;;;;;0.04;100.00;96178.72;5067449;28;21095;-60
2022/12/17 16:18:07;;;;;;;41.75;37.25;;;;;;;0.07;100.00;96182.91;5068472;28;20489;-62
2022/12/17 16:20:33;;;;;;;42.78;38.40;;;;;;;0.05;100.00;96183.00;5068543;28;20445;-62
2022/12/17 16:23:00;;;;;;;42.72;38.25;;;;;;;0.14;100.00;96184.34;5068461;28;20020;-62
2022/12/17 16:25:25;;;;;;;39.75;35.47;;;;;;;0.17;100.00;96180.78;5068111;28;20107;-62
2022/12/17 16:27:51;;;;;;;31.40;27.98;;;;;;;0.09;100.00;96181.09;5068212;28;20147;-62
2022/12/17 16:30:16;;;;;;;38.75;34.90;;;;;;;0.09;100.00;96186.28;5063867;28;20060;-62
2022/12/17 16:32:42;;;;;;;35.10;31.50;;;;;;;0.09;100.00;96176.78;5064279;28;20073;-60
2022/12/17 16:35:07;;;;;;;41.35;37.05;;;;;;;0.07;100.00;96172.56;5065731;28;20106;-60
2022/12/17 16:37:33;;;;;;;41.10;36.80;;;;;;;0.10;100.00;96172.44;5068860;28;20032;-60
2022/12/17 16:39:58;;;;;;;40.90;36.65;;;;;;;0.16;100.00;96171.31;5064701;28;20024;-60
2022/12/17 16:42:23;;;;;;;38.78;34.78;;;;;;;0.21;100.00;96178.00;5069459;28;20048;-59
2022/12/17 16:44:49;;;;;;;36.20;32.50;;;;;;;0.18;100.00;96169.50;5063385;28;20052;-60
2022/12/17 16:47:14;;;;;;;37.17;33.22;;;;;;;0.18;100.00;96180.72;5068040;28;20024;-60
2022/12/17 16:49:40;;;;;;;38.10;33.92;;;;;;;0.10;100.00;96183.63;5069378;28;20054;-60
2022/12/17 16:52:05;;;;;;;36.83;32.88;;;;;;;0.07;100.00;96180.31;5069317;28;20414;-60
2022/12/17 16:54:31;;;;;;;39.30;35.25;;;;;;;0.00;100.00;96184.94;5066100;28;20384;-65
2022/12/17 16:56:59;;;;;;;36.85;33.25;;;;;;;-0.01;100.00;96184.09;5065501;28;20032;-60
2022/12/17 16:59:24;;;;;;;45.70;41.10;;;;;;;-0.04;100.00;96192.00;5060852;28;20055;-61
2022/12/17 17:01:50;;;;;;;37.42;33.65;;;;;;;0.03;100.00;96191.72;5067100;28;20434;-60
2022/12/17 17:04:18;;;;;;;40.78;36.67;;;;;;;-0.01;100.00;96204.81;5068985;28;20028;-60
2022/12/17 17:06:46;;;;;;;40.83;36.67;;;;;;;-0.01;100.00;96206.53;5061012;28;20549;-60
2022/12/17 17:09:13;;;;;;;39.03;34.80;;;;;;;0.03;100.00;96204.69;5064032;28;20025;-60
2022/12/17 17:11:38;;;;;;;40.78;36.63;;;;;;;0.01;100.00;96209.06;5039719;28;20108;-62
2022/12/17 17:14:05;;;;;;;48.22;43.20;;;;;;;0.02;100.00;96206.44;5067317;28;20104;-67
2022/12/17 17:16:32;;;;;;;34.08;30.40;;;;;;;-0.01;100.00;96202.22;5065756;28;20029;-62
2022/12/17 17:18:58;;;;;;;37.08;33.08;;;;;;;-0.04;100.00;96204.94;5069658;28;20036;-62
2022/12/17 17:21:26;;;;;;;45.28;40.65;;;;;;;-0.04;100.00;96204.94;5069458;28;20028;-62
2022/12/17 17:23:58;;;;;;;39.70;35.70;;;;;;;0.01;100.00;96209.94;5051960;28;20111;-62
2022/12/17 17:26:26;;;;;;;45.55;40.90;;;;;;;-0.06;100.00;96204.16;5068496;28;20048;-62
2022/12/17 17:28:51;;;;;;;44.53;39.90;;;;;;;-0.08;100.00;96200.81;5067811;28;20090;-62
2022/12/17 17:31:17;;;;;;;46.58;41.65;;;;;;;-0.07;100.00;96210.25;5067595;28;20028;-56
2022/12/17 17:33:45;;;;;;;44.45;39.80;;;;;;;-0.04;100.00;96215.28;5068076;28;20048;-61
2022/12/17 17:36:25;;;;;;;47.53;42.53;;;;;;;-0.04;100.00;96217.88;5067740;28;20033;-61
2022/12/17 17:38:52;;;;;;;52.13;43.22;;;;;;;-0.05;100.00;96218.78;5043711;28;20037;-61
2022/12/17 17:41:20;;;;;;;42.80;38.17;;;;;;;-0.09;100.00;96222.41;5057005;28;20449;-60
2022/12/17 17:43:46;;;;;;;45.75;40.80;;;;;;;-0.09;100.00;96219.81;5063936;28;20055;-60
2022/12/17 17:46:17;;;;;;;43.50;38.72;;;;;;;-0.11;100.00;96224.22;5064600;28;20028;-60
2022/12/17 17:48:44;;;;;;;44.60;38.97;;;;;;;-0.06;100.00;96227.47;5066419;28;20077;-60
2022/12/17 17:51:16;;;;;;;41.17;36.97;;;;;;;-0.03;100.00;96229.91;5062082;28;20037;-60
2022/12/17 17:53:43;;;;;;;41.22;36.92;;;;;;;0.01;100.00;96227.19;5067925;28;20105;-67
2022/12/17 17:56:29;;;;;;;40.97;36.58;;;;;;;-0.04;100.00;96229.97;5064855;28;20120;-66
2022/12/17 17:59:08;;;;;;;41.63;37.25;;;;;;;-0.04;100.00;96227.38;5065022;28;20016;-66
2022/12/17 18:01:38;;;;;;;42.33;37.92;;;;;;;-0.05;100.00;96225.69;5066664;28;20817;-66
2022/12/17 18:04:05;;;;;;;43.08;37.65;;;;;;;-0.05;100.00;96225.69;5064761;28;20394;-67
2022/12/17 18:06:31;;;;;;;43.25;38.65;;;;;;;-0.04;100.00;96230.81;5068590;28;20033;-67
2022/12/17 18:08:58;;;;;;;44.17;39.58;;;;;;;0.01;100.00;96240.16;5063924;28;20031;-64
2022/12/17 18:11:26;;;;;;;43.78;39.10;;;;;;;0.02;100.00;96239.25;5065963;28;20111;-70
2022/12/17 18:13:54;;;;;;;50.38;45.03;;;;;;;-0.01;100.00;96241.06;5060943;28;20552;-59
2022/12/17 18:16:31;;;;;;;60.85;51.83;;;;;;;0.04;100.00;96240.00;5065555;28;20462;-59
2022/12/17 18:19:00;;;;;;;45.05;40.17;;;;;;;0.19;100.00;96241.97;5041170;28;20103;-59
2022/12/17 18:21:27;;;;;;;46.85;41.72;;;;;;;0.10;100.00;96248.38;5059680;28;20029;-59
2022/12/17 18:24:22;;;;;;;55.50;49.50;;;;;;;0.07;100.00;96242.47;5060922;28;20028;-60
2022/12/17 18:26:49;;;;;;;53.83;47.03;;;;;;;0.03;100.00;96248.69;5059795;28;20044;-59
2022/12/17 18:29:23;;;;;;;55.08;49.22;;;;;;;0.01;100.00;96248.78;5057714;28;20058;-62
2022/12/17 18:31:49;;;;;;;53.03;47.25;;;;;;;0.03;100.00;96248.69;5058090;28;20024;-56
2022/12/17 18:34:18;;;;;;;53.45;47.60;;;;;;;0.05;100.00;96252.06;5064039;28;20041;-56
2022/12/17 18:36:44;;;;;;;48.15;42.47;;;;;;;0.14;100.00;96256.88;5064165;28;20033;-55
2022/12/17 18:39:17;;;;;;;118.20;104.55;;;;;;;0.09;100.00;96245.84;5065594;28;20036;-55
2022/12/17 18:44:29;;;;;;;55.63;48.75;;;;;;;0.06;100.00;96258.91;5059230;28;20234;-56
2022/12/17 18:46:54;;;;;;;47.33;42.20;;;;;;;0.13;100.00;96257.78;5067047;28;20569;-74
2022/12/17 18:49:21;;;;;;;52.97;42.70;;;;;;;0.19;100.00;96257.50;5065172;28;20078;-59
2022/12/17 18:51:48;;;;;;;46.40;41.45;;;;;;;0.17;100.00;96250.69;5066029;28;20040;-70
2022/12/17 18:54:19;;;;;;;39.35;35.25;;;;;;;0.16;100.00;96260.22;5065926;28;20111;-71
2022/12/17 18:56:45;;;;;;;36.72;33.00;;;;;;;0.13;100.00;96253.41;5070665;28;20410;-72
2022/12/17 18:59:15;;;;;;;42.45;37.88;;;;;;;0.21;100.00;96260.88;5069621;28;20020;-70
2022/12/17 19:01:42;;;;;;;45.20;40.55;;;;;;;0.09;100.00;96266.56;5063904;28;20096;-75
2022/12/17 19:04:13;;;;;;;49.08;43.15;;;;;;;0.07;100.00;96266.63;5069419;28;20490;-74
2022/12/17 19:06:40;;;;;;;45.78;40.85;;;;;;;0.06;100.00;96277.03;5070427;28;20020;-61
2022/12/17 19:09:06;;;;;;;46.63;41.53;;;;;;;0.07;100.00;96281.31;5070366;28;20037;-64
2022/12/17 19:11:33;;;;;;;51.75;46.08;;;;;;;0.07;100.00;96282.16;5069910;28;20028;-58
2022/12/17 19:13:59;;;;;;;49.90;44.40;;;;;;;0.10;100.00;96278.59;5069931;28;20028;-58
2022/12/17 19:16:27;;;;;;;46.75;41.83;;;;;;;0.13;100.00;96286.25;5071514;28;20028;-58
2022/12/17 19:18:58;;;;;;;49.63;44.20;;;;;;;0.14;100.00;96286.19;5069592;28;20098;-58
2022/12/17 19:21:24;;;;;;;43.08;38.05;;;;;;;0.14;100.00;96293.13;5070496;28;20565;-59
2022/12/17 19:23:55;;;;;;;30.30;27.17;;;;;;;0.14;100.00;96299.13;5066808;28;20028;-58
2022/12/17 19:26:21;;;;;;;44.40;39.75;;;;;;;0.14;100.00;96298.31;5068145;28;20052;-61
2022/12/17 19:28:49;;;;;;;39.00;35.10;;;;;;;0.17;100.00;96302.50;5064361;28;20570;-59
2022/12/17 19:31:18;;;;;;;29.17;26.13;;;;;;;0.14;100.00;96290.53;5067110;28;20028;-59
2022/12/17 19:33:44;;;;;;;30.38;27.27;;;;;;;0.12;100.00;96294.94;5068816;28;20078;-59
2022/12/17 19:36:15;;;;;;;29.60;26.70;;;;;;;0.13;100.00;96300.03;5069900;28;20517;-59
2022/12/17 19:38:41;;;;;;;30.80;27.60;;;;;;;0.16;100.00;96306.84;5070270;28;20028;-58
2022/12/17 19:41:09;;;;;;;29.92;26.70;;;;;;;0.16;100.00;96306.00;5062658;28;20417;-58
2022/12/17 19:43:35;;;;;;;29.98;26.98;;;;;;;0.15;100.00;96312.94;5065739;28;20673;-58
2022/12/17 19:46:02;;;;;;;26.55;24.00;;;;;;;0.17;100.00;96318.88;5063839;28;20219;-61
2022/12/17 19:48:30;;;;;;;24.05;21.55;;;;;;;0.17;100.00;96312.84;5070040;28;20035;-73
2022/12/17 19:50:56;;;;;;;25.23;23.02;;;;;;;0.20;100.00;96317.91;5063885;28;20036;-73
2022/12/17 19:53:22;;;;;;;35.17;31.38;;;;;;;0.23;100.00;96321.22;5068063;28;20028;-73
2022/12/17 19:55:47;;;;;;;38.72;34.50;;;;;;;0.24;100.00;96328.09;5063791;28;20031;-73
2022/12/17 19:58:13;;;;;;;40.17;35.75;;;;;;;0.13;100.00;96327.69;5067757;28;20032;-74
2022/12/17 20:00:38;;;;;;;39.60;35.50;;;;;;;0.08;100.00;96335.63;5070503;28;20497;-73
2022/12/17 20:03:04;;;;;;;31.90;28.45;;;;;;;0.06;100.00;96336.59;5068340;28;20024;-73
2022/12/17 20:05:29;;;;;;;33.60;30.00;;;;;;;0.20;100.00;96339.47;5065077;28;20395;-69
2022/12/17 20:07:55;;;;;;;31.92;28.50;;;;;;;0.10;100.00;96343.31;5069942;28;20117;-70
2022/12/17 20:10:20;;;;;;;30.83;27.77;;;;;;;0.03;100.00;96342.75;5063535;28;20028;-69
2022/12/17 20:12:46;;;;;;;34.15;30.55;;;;;;;0.02;100.00;96353.16;5066071;28;20028;-69
2022/12/17 20:15:11;;;;;;;34.05;30.23;;;;;;;0.04;100.00;96361.69;5067809;28;20024;-70
2022/12/17 20:17:36;;;;;;;39.03;34.80;;;;;;;0.07;100.00;96357.25;5068043;28;20127;-69
2022/12/17 20:20:02;;;;;;;39.53;35.08;;;;;;;0.05;100.00;96361.66;5065583;28;20028;-70
2022/12/17 20:22:27;;;;;;;38.25;33.25;;;;;;;0.29;100.00;96361.56;5070539;28;20032;-69
2022/12/17 20:24:52;;;;;;;34.88;31.38;;;;;;;0.23;100.00;96364.41;5066854;28;20056;-62
2022/12/17 20:27:18;;;;;;;36.45;32.67;;;;;;;0.18;100.00;96362.00;5067359;28;20066;-62
2022/12/17 20:29:43;;;;;;;36.15;32.45;;;;;;;0.09;100.00;96373.56;5068245;28;20032;-62
2022/12/17 20:32:09;;;;;;;38.67;34.58;;;;;;;0.05;100.00;96379.78;5067450;28;20029;-62
2022/12/17 20:34:34;;;;;;;38.85;34.75;;;;;;;0.04;100.00;96395.38;5067063;28;20036;-62
2022/12/17 20:37:00;;;;;;;37.97;33.85;;;;;;;0.05;100.00;96394.47;5065620;28;20024;-62
2022/12/17 20:39:25;;;;;;;37.67;33.55;;;;;;;0.06;100.00;96403.91;5065469;28;20035;-62
2022/12/17 20:41:50;;;;;;;39.38;35.28;;;;;;;0.07;100.00;96405.59;5069621;28;20009;-62
2022/12/17 20:44:16;;;;;;;40.47;36.22;;;;;;;0.07;100.00;96403.88;5065762;28;20518;-63
2022/12/17 20:46:42;;;;;;;45.33;40.17;;;;;;;0.10;100.00;96400.28;5069247;28;20440;-64
2022/12/17 20:49:10;;;;;;;48.20;42.10;;;;;;;0.10;100.00;96400.28;5051308;28;20020;-64
2022/12/17 20:51:35;;;;;;;44.47;39.65;;;;;;;0.09;100.00;96398.59;5066323;28;20100;-64
2022/12/17 20:54:01;;;;;;;38.55;34.47;;;;;;;0.11;100.00;96400.25;5059921;28;20633;-64
2022/12/17 20:56:29;;;;;;;37.20;33.40;;;;;;;0.13;100.00;96405.38;5070209;28;20548;-64
2022/12/17 20:58:57;;;;;;;44.72;36.55;;;;;;;0.13;100.00;96410.56;5064129;28;20056;-64
2022/12/17 21:01:24;;;;;;;44.03;39.33;;;;;;;0.14;100.00;96401.88;5063323;28;20116;-74
2022/12/17 21:03:51;;;;;;;37.55;33.53;;;;;;;0.16;100.00;96407.00;5050465;28;20071;-62
2022/12/17 21:06:25;;;;;;;34.83;31.17;;;;;;;0.14;100.00;96412.25;5061954;28;20078;-74
2022/12/17 21:08:52;;;;;;;34.08;30.38;;;;;;;0.11;100.00;96417.50;5066565;28;20517;-74
2022/12/17 21:11:20;;;;;;;33.38;29.75;;;;;;;0.10;100.00;96421.00;5068001;28;20029;-74
2022/12/17 21:13:46;;;;;;;41.08;33.53;;;;;;;0.18;100.00;96412.94;5067128;28;20103;-73
2022/12/17 21:16:33;;;;;;;45.63;36.03;;;;;;;0.13;100.00;96408.78;5068771;28;20089;-73
2022/12/17 21:19:00;;;;;;;59.58;43.70;;;;;;;0.13;100.00;96415.75;5062093;28;20033;-74
2022/12/17 21:21:28;;;;;;;40.90;36.20;;;;;;;0.13;100.00;96410.56;5067013;28;20028;-60
2022/12/17 21:23:54;;;;;;;38.50;33.33;;;;;;;0.14;100.00;96420.84;5065549;28;20024;-70
2022/12/17 21:26:25;;;;;;;38.05;33.63;;;;;;;0.17;100.00;96431.97;5065660;28;20132;-62
2022/12/17 21:28:53;;;;;;;29.23;26.27;;;;;;;0.13;100.00;96446.81;5065112;28;20028;-62
2022/12/17 21:31:22;;;;;;;30.13;26.92;;;;;;;0.12;100.00;96445.13;5065379;28;20024;-62
2022/12/17 21:33:49;;;;;;;31.48;27.67;;;;;;;0.09;100.00;96432.28;5066297;28;20060;-61
2022/12/17 21:36:16;;;;;;;31.13;27.08;;;;;;;0.11;100.00;96427.88;5068540;28;20100;-61
2022/12/17 21:38:42;;;;;;;93.20;73.03;;;;;;;0.17;100.00;96422.47;5064285;28;20178;-62
2022/12/17 21:41:10;;;;;;;37.80;32.78;;;;;;;0.13;100.00;96421.75;5066638;28;20549;-61
2022/12/17 21:43:37;;;;;;;52.22;44.78;;;;;;;0.23;100.00;96418.81;5066911;28;20032;-61
2022/12/17 21:46:04;;;;;;;34.20;30.55;;;;;;;0.31;100.00;96427.13;5064365;28;20023;-61
2022/12/17 21:48:29;;;;;;;29.23;26.15;;;;;;;0.22;100.00;96438.69;5067703;28;20024;-61
2022/12/17 21:50:55;;;;;;;44.90;38.58;;;;;;;0.19;100.00;96449.16;5066186;28;20025;-61
2022/12/17 21:53:21;;;;;;;30.27;26.67;;;;;;;0.17;100.00;96444.94;5061672;28;20032;-62
2022/12/17 21:55:47;;;;;;;40.45;31.13;;;;;;;0.13;100.00;96445.06;5061727;28;20020;-61
2022/12/17 21:58:14;;;;;;;31.88;27.85;;;;;;;0.14;100.00;96449.31;5045088;28;20025;-62
2022/12/17 22:00:40;;;;;;;36.30;30.38;;;;;;;0.16;100.00;96461.38;5061787;28;20028;-62
2022/12/17 22:03:05;;;;;;;41.15;33.67;;;;;;;0.17;100.00;96457.88;5063644;28;20021;-61
2022/12/17 22:05:31;;;;;;;38.25;33.10;;;;;;;0.16;100.00;96454.47;5062944;28;20363;-61
2022/12/17 22:07:57;;;;;;;140.98;83.22;;;;;;;0.19;100.00;96450.88;5060462;28;20043;-62
2022/12/17 22:10:26;;;;;;;353.67;170.50;;;;;;;0.19;100.00;96446.56;5065653;28;20033;-61
2022/12/17 22:15:37;;;;;;;104.30;62.30;;;;;;;0.18;100.00;96452.66;5063585;28;20050;-61
2022/12/17 22:18:03;;;;;;;42.25;34.50;;;;;;;0.19;100.00;96461.25;5065115;28;20025;-61
2022/12/17 22:20:28;;;;;;;26.88;22.25;;;;;;;0.17;100.00;96474.28;5064385;28;20406;-62
2022/12/17 22:22:53;;;;;;;27.50;22.80;;;;;;;0.13;100.00;96473.53;5066529;28;20032;-61
2022/12/17 22:25:19;;;;;;;26.08;23.27;;;;;;;0.09;100.00;96469.38;5066125;28;20124;-62
2022/12/17 22:27:44;;;;;;;22.50;20.30;;;;;;;0.06;100.00;96460.88;5066363;28;20078;-61
2022/12/17 22:33:05;;;;;;;23.80;21.50;;;;;;;0.04;100.00;96468.72;5065715;28;20039;-62
2022/12/17 22:35:41;;;;;;;24.40;21.98;;;;;;;-0.02;100.00;96469.78;5070027;28;20080;-62
2022/12/17 22:38:07;;;;;;;24.83;22.23;;;;;;;-0.03;100.00;96477.59;5066341;28;20380;-62
2022/12/17 22:40:33;;;;;;;27.45;24.70;;;;;;;0.04;100.00;96462.69;5069894;28;20086;-60
2022/12/17 22:45:42;;;;;;;31.98;23.25;;;;;;;0.03;100.00;96479.97;5071985;28;20036;-61
2022/12/17 22:48:09;;;;;;;29.13;23.60;;;;;;;-0.06;100.00;96470.81;5066547;28;20494;-62
2022/12/17 22:50:35;;;;;;;26.95;23.65;;;;;;;0.03;100.00;96482.56;5070914;28;20036;-61
2022/12/17 22:53:01;;;;;;;29.42;24.45;;;;;;;0.00;100.00;96482.69;5069336;28;20053;-62
2022/12/17 22:55:27;;;;;;;29.40;25.90;;;;;;;-0.07;100.00;96484.66;5070146;28;20105;-62
2022/12/17 22:57:52;;;;;;;26.48;22.88;;;;;;;-0.11;100.00;96496.03;5068817;28;20843;-61
2022/12/17 23:00:24;;;;;;;22.08;19.92;;;;;;;-0.13;100.00;96495.22;5069663;28;20043;-61
2022/12/17 23:02:53;;;;;;;21.77;19.33;;;;;;;0.03;100.00;96492.06;5070251;28;20035;-64
2022/12/17 23:05:23;;;;;;;21.77;19.48;;;;;;;-0.04;100.00;96492.31;5068041;28;20036;-64
2022/12/17 23:07:49;;;;;;;27.65;23.63;;;;;;;-0.12;100.00;96503.84;5065087;28;20486;-64
2022/12/17 23:10:15;;;;;;;27.55;20.27;;;;;;;-0.13;100.00;96507.34;5062916;28;20093;-64
2022/12/17 23:12:50;;;;;;;23.58;21.25;;;;;;;-0.21;100.00;96507.59;5063367;28;20025;-64
2022/12/17 23:15:35;;;;;;;22.00;19.95;;;;;;;-0.24;100.00;96515.50;5065989;28;20028;-64
2022/12/17 23:18:03;;;;;;;20.67;18.45;;;;;;;-0.21;100.00;96523.13;5069315;28;20044;-59
2022/12/17 23:20:31;;;;;;;20.15;18.15;;;;;;;-0.22;100.00;96513.69;5067957;28;20044;-61
2022/12/17 23:22:57;;;;;;;20.85;18.75;;;;;;;-0.25;100.00;96518.97;5070888;28;20087;-60
2022/12/17 23:25:23;;;;;;;20.50;18.60;;;;;;;-0.22;100.00;96519.72;5067092;28;20036;-60
2022/12/17 23:27:49;;;;;;;20.45;18.42;;;;;;;-0.24;100.00;96518.06;5069009;28;20042;-60
2022/12/17 23:30:15;;;;;;;19.92;18.05;;;;;;;-0.25;100.00;96521.56;5069613;28;20529;-60
2022/12/17 23:32:41;;;;;;;20.13;18.10;;;;;;;-0.20;100.00;96523.09;5069350;28;20078;-60
2022/12/17 23:35:07;;;;;;;20.25;18.35;;;;;;;-0.20;100.00;96527.41;5068310;28;20044;-60
2022/12/17 23:37:32;;;;;;;23.48;21.27;;;;;;;-0.19;100.00;96529.97;5067679;28;20078;-64
2022/12/17 23:39:58;;;;;;;20.30;18.15;;;;;;;-0.18;100.00;96547.19;5065155;28;20390;-62
2022/12/17 23:42:23;;;;;;;18.83;17.02;;;;;;;-0.23;100.00;96548.22;5068566;28;20032;-62
2022/12/17 23:44:49;;;;;;;21.98;19.75;;;;;;;-0.30;100.00;96551.03;5063462;28;20028;-62
2022/12/17 23:47:14;;;;;;;20.92;18.83;;;;;;;-0.37;100.00;96559.06;5067740;28;20052;-62
2022/12/17 23:49:39;;;;;;;21.83;19.50;;;;;;;-0.36;100.00;96559.00;5066831;28;20009;-62
2022/12/17 23:52:05;;;;;;;22.35;19.73;;;;;;;-0.38;100.00;96549.63;5068099;28;20024;-62
2022/12/17 23:54:30;;;;;;;22.02;19.65;;;;;;;-0.40;100.00;96541.91;5067679;28;20051;-62
2022/12/17 23:56:56;;;;;;;22.17;19.73;;;;;;;-0.38;100.00;96547.88;5066252;28;20103;-75
2022/12/17 23:59:21;;;;;;;25.30;22.55;;;;;;;-0.39;100.00;96556.53;5066794;28;20153;-61
